Time;durP1;ratioP1;P1;durP2;ratioP2;P2;SDS_P1;SDS_P2;PMS_P1;PMS_P2;Temp;Humidity;BMP_temperature;BMP_pressure;BME280_temperature;BME280_humidity;BME280_pressure;Samples;Min_cycle;Max_cycle;Signal;HPM_P1;HPM_P2
2021/08/18 00:00:06;;;;;;;11.17;8.10;;;15.70;99.90;;;;;;5046732;28;20493;-50
2021/08/18 00:02:33;;;;;;;9.70;8.07;;;15.80;99.90;;;;;;5046681;28;20943;-46
2021/08/18 00:05:00;;;;;;;11.63;8.83;;;15.80;99.90;;;;;;5048264;28;20476;-52
2021/08/18 00:07:29;;;;;;;15.03;8.53;;;15.80;99.90;;;;;;5047574;28;20467;-48
2021/08/18 00:09:56;;;;;;;12.60;8.67;;;15.90;99.90;;;;;;5046775;28;20788;-49
2021/08/18 00:12:24;;;;;;;12.13;8.07;;;15.90;99.90;;;;;;5042694;28;20513;-46
2021/08/18 00:14:51;;;;;;;10.50;7.70;;;15.90;99.90;;;;;;5046290;28;20479;-46
2021/08/18 00:17:19;;;;;;;12.27;8.10;;;15.90;99.90;;;;;;5047528;28;20906;-48
2021/08/18 00:19:46;;;;;;;13.87;8.60;;;15.90;99.90;;;;;;5039720;28;20467;-52
2021/08/18 00:22:13;;;;;;;11.20;7.97;;;15.90;99.90;;;;;;5046067;28;20444;-49
2021/08/18 00:24:40;;;;;;;8.70;7.80;;;15.90;99.90;;;;;;5045387;28;20433;-46
2021/08/18 00:27:09;;;;;;;11.43;8.73;;;15.90;99.90;;;;;;5042914;28;20839;-51
2021/08/18 00:29:37;;;;;;;9.77;8.73;;;15.90;99.90;;;;;;5045389;28;20476;-49
2021/08/18 00:32:05;;;;;;;13.87;8.80;;;15.90;99.90;;;;;;5042032;28;20468;-47
2021/08/18 00:34:32;;;;;;;9.87;7.47;;;15.90;99.90;;;;;;5044533;28;20950;-48
2021/08/18 00:36:59;;;;;;;10.30;8.77;;;15.80;99.90;;;;;;5047524;28;20432;-51
2021/08/18 00:39:26;;;;;;;13.20;8.73;;;15.80;99.90;;;;;;5042702;28;20433;-52
2021/08/18 00:41:54;;;;;;;11.90;8.60;;;15.80;99.90;;;;;;5045636;28;20452;-47
2021/08/18 00:44:21;;;;;;;9.73;8.03;;;15.70;99.90;;;;;;5047419;28;20519;-50
2021/08/18 00:46:51;;;;;;;12.67;7.70;;;15.70;99.90;;;;;;5045434;28;20441;-48
2021/08/18 00:49:19;;;;;;;10.30;9.30;;;15.70;99.90;;;;;;5045314;28;20509;-46
2021/08/18 00:51:46;;;;;;;13.90;8.93;;;15.70;99.90;;;;;;5045074;28;20440;-47
2021/08/18 00:54:13;;;;;;;11.73;9.13;;;15.60;99.90;;;;;;5044480;28;20471;-47
2021/08/18 00:56:40;;;;;;;14.33;7.70;;;15.70;99.90;;;;;;5046961;28;20471;-47
2021/08/18 00:59:08;;;;;;;12.63;9.67;;;15.60;99.90;;;;;;5044491;28;20522;-47
2021/08/18 01:01:36;;;;;;;13.40;8.33;;;15.70;99.90;;;;;;5046209;28;20775;-47
2021/08/18 01:04:04;;;;;;;11.27;8.80;;;15.70;99.90;;;;;;5044617;28;20959;-50
2021/08/18 01:06:32;;;;;;;13.10;8.50;;;15.70;99.90;;;;;;5045405;28;20477;-49
2021/08/18 01:08:59;;;;;;;14.83;8.80;;;15.70;99.90;;;;;;5043668;28;20522;-49
2021/08/18 01:11:26;;;;;;;12.10;7.60;;;15.70;99.90;;;;;;5049563;28;20475;-47
2021/08/18 01:13:53;;;;;;;11.80;7.37;;;15.70;99.90;;;;;;5049955;28;20939;-47
2021/08/18 01:16:20;;;;;;;8.53;7.10;;;15.60;99.90;;;;;;5055850;28;20793;-49
2021/08/18 01:18:47;;;;;;;8.60;6.20;;;15.60;99.90;;;;;;5055990;28;20453;-52
2021/08/18 01:21:15;;;;;;;8.40;6.33;;;15.60;99.90;;;;;;5055449;28;20447;-49
2021/08/18 01:23:42;;;;;;;6.67;5.23;;;15.60;99.90;;;;;;5055962;28;20854;-49
2021/08/18 01:26:09;;;;;;;8.87;5.73;;;15.60;99.90;;;;;;5047758;28;20483;-49
2021/08/18 01:28:38;;;;;;;6.30;5.50;;;15.60;99.90;;;;;;5055577;28;20475;-51
2021/08/18 01:31:05;;;;;;;6.53;4.60;;;15.60;99.90;;;;;;5055731;28;20439;-46
2021/08/18 01:33:36;;;;;;;6.20;5.33;;;15.60;99.90;;;;;;5055424;28;20483;-51
2021/08/18 01:36:03;;;;;;;5.47;4.00;;;15.60;99.90;;;;;;5055268;28;20566;-53
2021/08/18 01:38:30;;;;;;;3.77;3.40;;;15.60;99.90;;;;;;5055461;28;20475;-49
2021/08/18 01:40:57;;;;;;;3.80;3.23;;;15.60;99.90;;;;;;5055685;28;20455;-49
2021/08/18 01:43:24;;;;;;;3.77;2.90;;;15.60;99.90;;;;;;5055230;28;20510;-49
2021/08/18 01:45:53;;;;;;;5.10;2.93;;;15.60;99.90;;;;;;5055487;28;20439;-48
2021/08/18 01:48:22;;;;;;;4.90;3.27;;;15.70;99.90;;;;;;5055768;28;20470;-46
2021/08/18 01:50:52;;;;;;;3.07;2.77;;;15.70;99.90;;;;;;5056268;28;20780;-49
2021/08/18 01:53:20;;;;;;;3.40;2.63;;;15.60;99.90;;;;;;5057261;28;20447;-52
2021/08/18 01:55:48;;;;;;;3.90;3.00;;;15.60;99.90;;;;;;5055801;28;20556;-48
2021/08/18 01:58:15;;;;;;;3.00;2.43;;;15.70;99.90;;;;;;5056027;28;20443;-48
2021/08/18 02:00:42;;;;;;;3.27;2.03;;;15.70;99.90;;;;;;5056211;28;20831;-46
2021/08/18 02:03:10;;;;;;;2.63;2.33;;;15.70;99.90;;;;;;5055501;28;20479;-47
2021/08/18 02:05:37;;;;;;;2.20;2.00;;;15.70;99.90;;;;;;5055230;28;20538;-47
2021/08/18 02:08:05;;;;;;;3.23;2.17;;;15.60;99.90;;;;;;5055365;28;20534;-46
2021/08/18 02:10:32;;;;;;;2.27;1.60;;;15.60;99.90;;;;;;5055092;28;20499;-46
2021/08/18 02:12:59;;;;;;;1.47;1.20;;;15.60;99.90;;;;;;5055648;28;20515;-48
2021/08/18 02:15:28;;;;;;;1.67;0.87;;;15.50;99.90;;;;;;5055489;28;20507;-46
2021/08/18 02:17:56;;;;;;;2.37;1.70;;;15.50;99.90;;;;;;5057060;28;20501;-45
2021/08/18 02:20:29;;;;;;;1.03;0.93;;;15.50;99.90;;;;;;5058248;28;20478;-48
2021/08/18 02:22:57;;;;;;;2.50;1.00;;;15.40;99.90;;;;;;5056119;28;20502;-47
2021/08/18 02:25:24;;;;;;;1.33;1.00;;;15.40;99.90;;;;;;5058814;28;20495;-50
2021/08/18 02:27:52;;;;;;;1.63;1.00;;;15.40;99.90;;;;;;5058632;28;20564;-48
2021/08/18 02:30:21;;;;;;;1.43;1.30;;;15.30;99.90;;;;;;5059128;28;20443;-49
2021/08/18 02:32:48;;;;;;;2.63;1.37;;;15.30;99.90;;;;;;5058641;28;20558;-46
2021/08/18 02:35:16;;;;;;;1.53;1.40;;;15.30;99.90;;;;;;5059140;28;20519;-46
2021/08/18 02:37:45;;;;;;;1.00;0.70;;;15.30;99.90;;;;;;5059337;28;20845;-45
2021/08/18 02:40:16;;;;;;;2.60;2.40;;;15.30;99.90;;;;;;5058755;28;20479;-47
2021/08/18 02:42:43;;;;;;;2.23;2.03;;;15.30;99.90;;;;;;5059024;28;20471;-47
2021/08/18 02:45:12;;;;;;;1.13;0.80;;;15.30;99.90;;;;;;5058808;28;20442;-45
2021/08/18 02:47:39;;;;;;;1.30;1.00;;;15.30;99.90;;;;;;5058907;28;20471;-45
2021/08/18 02:50:08;;;;;;;2.70;1.40;;;15.30;99.90;;;;;;5058469;28;20502;-46
2021/08/18 02:52:35;;;;;;;1.50;1.33;;;15.30;99.90;;;;;;5058604;28;20973;-45
2021/08/18 02:55:03;;;;;;;2.73;1.53;;;15.30;99.90;;;;;;5058034;28;20518;-50
2021/08/18 02:57:30;;;;;;;2.60;1.33;;;15.30;99.90;;;;;;5058325;28;20930;-45
2021/08/18 02:59:57;;;;;;;2.03;1.83;;;15.30;99.90;;;;;;5058452;28;20903;-45
2021/08/18 03:02:24;;;;;;;2.70;2.07;;;15.40;99.90;;;;;;5058462;28;20912;-45
2021/08/18 03:04:52;;;;;;;2.13;1.93;;;15.40;99.90;;;;;;5058763;28;20471;-45
2021/08/18 03:07:19;;;;;;;6.13;1.90;;;15.40;99.90;;;;;;5058671;28;20795;-48
2021/08/18 03:09:46;;;;;;;2.90;1.30;;;15.40;99.90;;;;;;5058217;28;20482;-46
2021/08/18 03:12:14;;;;;;;1.00;0.90;;;15.40;99.90;;;;;;5057893;28;20470;-46
2021/08/18 03:14:41;;;;;;;2.77;2.57;;;15.30;99.90;;;;;;5057802;28;20558;-46
2021/08/18 03:17:08;;;;;;;2.07;1.67;;;15.30;99.90;;;;;;5057856;28;20535;-45
2021/08/18 03:19:35;;;;;;;2.13;1.77;;;15.30;99.90;;;;;;5058117;28;20513;-46
2021/08/18 03:22:03;;;;;;;3.60;1.40;;;15.30;99.90;;;;;;5059288;28;20443;-44
2021/08/18 03:24:30;;;;;;;1.73;1.53;;;15.30;99.90;;;;;;5058757;28;20534;-42
2021/08/18 03:26:57;;;;;;;2.47;1.20;;;15.30;99.90;;;;;;5059345;28;20517;-41
2021/08/18 03:29:25;;;;;;;1.23;1.13;;;15.30;99.90;;;;;;5058848;28;20459;-41
2021/08/18 03:31:52;;;;;;;3.60;1.17;;;15.30;99.90;;;;;;5060221;28;20451;-42
2021/08/18 03:34:19;;;;;;;2.30;1.37;;;15.30;99.90;;;;;;5059057;28;20518;-42
2021/08/18 03:36:46;;;;;;;2.10;0.97;;;15.30;99.90;;;;;;5059325;28;20510;-41
2021/08/18 03:39:13;;;;;;;1.83;0.87;;;15.30;99.90;;;;;;5059648;28;20531;-41
2021/08/18 03:41:40;;;;;;;2.13;1.60;;;15.30;99.90;;;;;;5059268;28;20512;-51
2021/08/18 03:44:07;;;;;;;2.20;1.47;;;15.30;99.90;;;;;;5058517;28;20549;-42
2021/08/18 03:46:35;;;;;;;1.27;1.07;;;15.20;99.90;;;;;;5058549;28;20770;-42
2021/08/18 03:49:02;;;;;;;1.77;1.00;;;15.10;99.90;;;;;;5058345;28;20448;-41
2021/08/18 03:51:29;;;;;;;3.17;2.07;;;15.10;99.90;;;;;;5058303;28;20489;-43
2021/08/18 03:53:56;;;;;;;1.33;1.23;;;15.10;99.90;;;;;;5057952;28;20851;-44
2021/08/18 03:56:22;;;;;;;1.50;1.40;;;15.10;99.90;;;;;;5058233;28;20518;-43
2021/08/18 03:58:49;;;;;;;1.27;1.00;;;15.10;99.90;;;;;;5058563;28;20451;-43
2021/08/18 04:01:16;;;;;;;1.30;0.90;;;15.10;99.90;;;;;;5058359;28;20490;-44
2021/08/18 04:03:45;;;;;;;1.20;0.80;;;15.20;99.90;;;;;;5058049;28;20990;-43
2021/08/18 04:06:12;;;;;;;1.50;1.07;;;15.20;99.90;;;;;;5059157;28;20440;-47
2021/08/18 04:08:38;;;;;;;1.33;1.20;;;15.20;99.90;;;;;;5059156;28;20478;-41
2021/08/18 04:11:09;;;;;;;1.83;1.13;;;15.20;99.90;;;;;;5058615;28;20487;-44
2021/08/18 04:13:36;;;;;;;0.90;0.60;;;15.20;99.90;;;;;;5057935;28;20490;-44
2021/08/18 04:16:03;;;;;;;1.10;0.90;;;15.20;99.90;;;;;;5057656;28;20577;-43
2021/08/18 04:18:30;;;;;;;0.90;0.70;;;15.20;99.90;;;;;;5057902;28;20845;-44
2021/08/18 04:20:59;;;;;;;1.20;1.10;;;15.20;99.90;;;;;;5057972;28;20467;-44
2021/08/18 04:23:26;;;;;;;0.90;0.67;;;15.20;99.90;;;;;;5058044;28;20521;-47
2021/08/18 04:25:53;;;;;;;0.90;0.70;;;15.20;99.90;;;;;;5057982;28;20471;-44
2021/08/18 04:28:21;;;;;;;3.10;1.53;;;15.20;99.90;;;;;;5057605;28;20513;-43
2021/08/18 04:30:47;;;;;;;0.90;0.70;;;15.20;99.90;;;;;;5057978;28;20529;-42
2021/08/18 04:33:14;;;;;;;2.13;1.57;;;15.20;99.90;;;;;;5057746;28;20466;-41
2021/08/18 04:35:41;;;;;;;1.40;0.97;;;15.20;99.90;;;;;;5058343;28;20475;-42
2021/08/18 04:38:10;;;;;;;1.23;0.83;;;15.30;99.90;;;;;;5058103;28;20475;-46
2021/08/18 04:40:37;;;;;;;1.23;1.13;;;15.30;99.90;;;;;;5057570;28;20443;-42
2021/08/18 04:43:04;;;;;;;1.77;1.67;;;15.20;99.90;;;;;;5057734;28;20454;-47
2021/08/18 04:45:31;;;;;;;0.90;0.60;;;15.30;99.90;;;;;;5057526;28;20482;-42
2021/08/18 04:47:58;;;;;;;1.50;0.83;;;15.30;99.90;;;;;;5057360;28;20493;-40
2021/08/18 04:50:26;;;;;;;1.53;1.23;;;15.30;99.90;;;;;;5058175;28;20474;-42
2021/08/18 04:52:53;;;;;;;1.53;1.23;;;15.30;99.90;;;;;;5057196;28;20932;-41
2021/08/18 04:55:21;;;;;;;1.43;0.90;;;15.30;99.90;;;;;;5057266;28;20439;-43
2021/08/18 04:57:48;;;;;;;0.90;0.57;;;15.40;99.90;;;;;;5056958;28;20999;-45
2021/08/18 05:00:16;;;;;;;1.47;1.33;;;15.40;99.90;;;;;;5057148;28;20834;-44
2021/08/18 05:02:44;;;;;;;0.90;0.70;;;15.40;99.90;;;;;;5057182;28;20501;-46
2021/08/18 05:05:11;;;;;;;1.10;0.87;;;15.40;99.90;;;;;;5056441;28;20447;-42
2021/08/18 05:07:38;;;;;;;0.90;0.50;;;15.50;99.90;;;;;;5057285;28;20761;-44
2021/08/18 05:10:05;;;;;;;3.77;1.20;;;15.50;99.90;;;;;;5056728;28;20459;-45
2021/08/18 05:12:33;;;;;;;1.40;1.00;;;15.60;99.90;;;;;;5056864;28;20447;-42
2021/08/18 05:15:00;;;;;;;1.40;0.83;;;15.60;99.90;;;;;;5017787;28;20968;-44
2021/08/18 05:17:27;;;;;;;1.70;1.20;;;15.60;99.90;;;;;;5017139;28;20480;-41
2021/08/18 05:19:53;;;;;;;1.43;0.93;;;15.50;99.90;;;;;;5017679;28;20452;-42
2021/08/18 05:22:20;;;;;;;1.77;0.93;;;15.50;99.90;;;;;;5016820;28;20449;-44
2021/08/18 05:24:47;;;;;;;2.30;2.10;;;15.50;99.90;;;;;;5016814;28;20446;-45
2021/08/18 05:27:14;;;;;;;1.93;1.63;;;15.50;99.90;;;;;;5016667;28;20503;-42
2021/08/18 05:29:42;;;;;;;1.90;1.47;;;15.60;99.90;;;;;;5016431;28;20445;-44
2021/08/18 05:32:09;;;;;;;1.60;1.23;;;15.50;99.90;;;;;;5017091;28;20511;-42
2021/08/18 05:34:35;;;;;;;1.30;0.67;;;15.50;99.90;;;;;;5017427;28;20460;-42
2021/08/18 05:37:02;;;;;;;1.10;0.87;;;15.50;99.90;;;;;;5016612;28;20484;-43
2021/08/18 05:39:29;;;;;;;1.83;1.63;;;15.60;99.90;;;;;;5016013;28;20468;-43
2021/08/18 05:41:56;;;;;;;1.67;0.80;;;15.70;99.90;;;;;;5016800;28;20534;-44
2021/08/18 05:44:22;;;;;;;0.90;0.60;;;15.80;99.90;;;;;;5016952;28;20453;-42
2021/08/18 05:46:52;;;;;;;1.00;0.83;;;15.90;99.90;;;;;;5016588;28;20444;-41
2021/08/18 05:49:21;;;;;;;1.10;0.70;;;16.00;99.90;;;;;;5016466;28;20453;-43
2021/08/18 05:51:48;;;;;;;1.90;1.23;;;16.10;99.90;;;;;;5013131;28;20800;-42
2021/08/18 05:54:15;;;;;;;1.10;1.00;;;16.20;99.90;;;;;;5016417;28;20456;-42
2021/08/18 05:56:41;;;;;;;0.90;0.60;;;16.30;99.90;;;;;;5016996;28;20489;-42
2021/08/18 05:59:08;;;;;;;1.90;1.30;;;16.30;99.90;;;;;;5013112;28;20461;-41
2021/08/18 06:01:35;;;;;;;3.00;1.47;;;16.30;99.90;;;;;;5009470;28;20486;-44
2021/08/18 06:04:03;;;;;;;0.90;0.63;;;16.30;99.90;;;;;;5011719;28;20763;-47
2021/08/18 06:06:30;;;;;;;1.00;0.60;;;16.30;99.90;;;;;;5020313;28;20866;-44
2021/08/18 06:08:58;;;;;;;2.20;1.80;;;16.30;99.90;;;;;;5019785;28;20511;-47
2021/08/18 06:11:25;;;;;;;0.90;0.50;;;16.30;99.90;;;;;;5018208;28;20461;-42
2021/08/18 06:13:51;;;;;;;1.40;1.00;;;16.30;99.90;;;;;;5029570;28;20468;-45
2021/08/18 06:16:18;;;;;;;0.90;0.57;;;16.30;99.90;;;;;;5052685;28;20692;-42
2021/08/18 06:18:45;;;;;;;0.93;0.60;;;16.30;99.90;;;;;;5059143;28;20516;-43
2021/08/18 06:21:13;;;;;;;2.50;0.80;;;16.40;99.90;;;;;;5059114;28;20443;-42
2021/08/18 06:23:40;;;;;;;1.77;1.00;;;16.50;99.90;;;;;;5059799;28;20509;-43
2021/08/18 06:26:06;;;;;;;1.00;0.63;;;16.50;99.90;;;;;;5059603;28;20978;-42
2021/08/18 06:28:34;;;;;;;3.30;1.00;;;16.50;99.90;;;;;;5055252;28;20504;-46
2021/08/18 06:31:01;;;;;;;1.20;0.90;;;16.50;99.90;;;;;;5020484;28;20527;-43
2021/08/18 06:33:28;;;;;;;1.00;0.70;;;16.50;99.90;;;;;;5018323;28;20803;-43
2021/08/18 06:35:55;;;;;;;1.47;0.90;;;16.50;99.90;;;;;;5019282;28;20468;-41
2021/08/18 06:38:23;;;;;;;0.90;0.60;;;16.50;99.90;;;;;;5019185;28;20821;-44
2021/08/18 06:40:50;;;;;;;1.07;0.70;;;16.60;99.90;;;;;;5018823;28;20519;-47
2021/08/18 06:43:16;;;;;;;1.00;0.80;;;16.60;99.90;;;;;;5019256;28;20449;-43
2021/08/18 06:45:43;;;;;;;0.90;0.60;;;16.70;99.90;;;;;;5019113;28;20453;-46
2021/08/18 06:48:10;;;;;;;0.90;0.67;;;16.80;99.90;;;;;;5018638;28;20487;-42
2021/08/18 06:50:36;;;;;;;1.23;0.80;;;16.90;99.90;;;;;;5019249;28;20457;-41
2021/08/18 06:53:03;;;;;;;1.30;0.83;;;16.90;99.90;;;;;;5018945;28;20457;-47
2021/08/18 06:55:32;;;;;;;1.00;0.70;;;16.90;99.90;;;;;;5019055;28;20516;-42
2021/08/18 06:57:59;;;;;;;1.00;0.80;;;16.90;99.90;;;;;;5018900;28;21040;-43
2021/08/18 07:00:26;;;;;;;0.90;0.60;;;16.90;99.90;;;;;;5019323;28;20522;-44
2021/08/18 07:02:52;;;;;;;0.90;0.60;;;16.90;99.90;;;;;;5018973;28;20503;-45
2021/08/18 07:05:20;;;;;;;0.90;0.60;;;16.90;99.90;;;;;;5018873;28;20445;-42
2021/08/18 07:07:47;;;;;;;1.20;0.90;;;17.00;99.90;;;;;;5018857;28;20453;-45
2021/08/18 07:10:15;;;;;;;0.90;0.60;;;17.00;99.90;;;;;;5019068;28;20465;-46
2021/08/18 07:12:43;;;;;;;1.00;0.70;;;17.00;99.90;;;;;;5018523;28;20449;-47
2021/08/18 07:15:11;;;;;;;0.90;0.67;;;17.10;99.90;;;;;;5018770;28;20761;-47
2021/08/18 07:17:38;;;;;;;1.67;0.90;;;17.20;99.90;;;;;;5018398;28;20870;-43
2021/08/18 07:20:06;;;;;;;0.90;0.60;;;17.40;99.90;;;;;;5018333;28;20526;-42
2021/08/18 07:22:32;;;;;;;1.07;0.77;;;17.50;99.90;;;;;;5018797;28;20503;-42
2021/08/18 07:25:00;;;;;;;1.20;1.00;;;17.70;99.90;;;;;;5018779;28;20445;-43
2021/08/18 07:27:27;;;;;;;0.90;0.60;;;17.80;99.90;;;;;;5017994;28;20467;-44
2021/08/18 07:29:55;;;;;;;1.40;0.80;;;17.90;99.90;;;;;;5018418;28;20449;-48
2021/08/18 07:32:22;;;;;;;1.00;0.70;;;17.90;99.90;;;;;;5017938;28;20567;-45
2021/08/18 07:34:49;;;;;;;1.30;0.90;;;18.10;99.90;;;;;;5018179;28;20473;-42
2021/08/18 07:37:17;;;;;;;0.90;0.60;;;18.10;99.90;;;;;;5017924;28;20869;-45
2021/08/18 07:39:44;;;;;;;0.90;0.60;;;18.10;99.90;;;;;;5018212;28;20471;-45
2021/08/18 07:42:11;;;;;;;1.83;1.27;;;18.00;99.90;;;;;;5018420;28;20522;-41
2021/08/18 07:44:38;;;;;;;1.53;1.43;;;18.10;99.90;;;;;;5017815;28;20890;-44
2021/08/18 07:47:06;;;;;;;0.90;0.57;;;18.10;99.90;;;;;;5017684;28;20525;-48
2021/08/18 07:49:33;;;;;;;0.90;0.70;;;18.20;99.90;;;;;;5018116;28;20456;-42
2021/08/18 07:52:00;;;;;;;1.13;0.90;;;18.10;99.90;;;;;;5017632;28;20461;-42
2021/08/18 07:54:26;;;;;;;0.90;0.60;;;18.10;99.90;;;;;;5018108;28;20780;-44
2021/08/18 07:56:53;;;;;;;1.10;0.70;;;17.90;99.90;;;;;;5017813;28;20491;-46
2021/08/18 07:59:20;;;;;;;1.10;0.87;;;17.80;99.90;;;;;;5017872;28;20461;-41
2021/08/18 08:01:46;;;;;;;1.50;1.10;;;17.70;99.90;;;;;;5017776;28;20926;-45
2021/08/18 08:04:14;;;;;;;1.00;0.70;;;18.10;99.90;;;;;;5017897;28;20479;-42
2021/08/18 08:06:41;;;;;;;0.90;0.53;;;18.20;99.90;;;;;;5017967;28;20503;-45
2021/08/18 08:09:08;;;;;;;1.00;0.80;;;18.50;99.90;;;;;;5009271;28;21008;-42
2021/08/18 08:11:35;;;;;;;2.60;0.90;;;18.80;99.90;;;;;;5017454;28;20898;-47
2021/08/18 08:14:01;;;;;;;0.90;0.57;;;19.00;99.90;;;;;;5017278;28;20568;-48
2021/08/18 08:16:28;;;;;;;1.00;0.80;;;19.30;99.90;;;;;;5017133;28;20437;-42
2021/08/18 08:18:55;;;;;;;1.00;0.90;;;19.60;99.90;;;;;;5016965;28;20449;-44
2021/08/18 08:21:24;;;;;;;0.90;0.60;;;20.00;99.90;;;;;;5016151;28;20445;-42
2021/08/18 08:23:51;;;;;;;1.30;1.00;;;20.20;99.90;;;;;;5017179;28;20849;-44
2021/08/18 08:26:18;;;;;;;0.93;0.67;;;20.20;99.90;;;;;;5016452;28;20456;-42
2021/08/18 08:28:44;;;;;;;2.07;0.90;;;20.60;99.90;;;;;;5016378;28;20445;-43
2021/08/18 08:31:12;;;;;;;1.03;0.93;;;21.10;99.90;;;;;;5016281;28;20450;-45
2021/08/18 08:33:38;;;;;;;1.00;0.70;;;21.00;99.90;;;;;;5016214;28;20461;-45
2021/08/18 08:36:05;;;;;;;0.90;0.53;;;20.80;99.90;;;;;;5016305;28;20449;-42
2021/08/18 08:38:33;;;;;;;1.60;0.83;;;20.40;99.90;;;;;;5015916;28;20492;-48
2021/08/18 08:41:00;;;;;;;1.73;1.00;;;20.30;99.90;;;;;;5015746;28;20507;-42
2021/08/18 08:43:27;;;;;;;0.90;0.60;;;20.00;99.90;;;;;;5016419;28;20511;-42
2021/08/18 08:45:53;;;;;;;1.13;0.97;;;19.80;99.90;;;;;;5016313;28;20766;-47
2021/08/18 08:48:21;;;;;;;1.10;0.83;;;19.80;99.90;;;;;;5016410;28;20449;-46
2021/08/18 08:50:50;;;;;;;2.13;1.43;;;19.80;99.90;;;;;;5016105;28;20587;-47
2021/08/18 08:53:17;;;;;;;1.00;0.80;;;19.70;99.90;;;;;;5016443;28;20515;-44
2021/08/18 08:55:46;;;;;;;1.10;0.90;;;19.90;99.90;;;;;;5015984;28;20448;-48
2021/08/18 08:58:13;;;;;;;1.00;0.70;;;20.30;99.90;;;;;;5015673;28;20489;-44
2021/08/18 09:00:39;;;;;;;1.43;0.90;;;20.80;99.90;;;;;;5015732;28;20453;-45
2021/08/18 09:03:12;;;;;;;1.20;0.87;;;21.10;99.90;;;;;;5015664;28;20464;-50
2021/08/18 09:05:39;;;;;;;1.00;0.70;;;21.30;99.90;;;;;;5015645;28;20507;-45
2021/08/18 09:08:11;;;;;;;1.40;0.90;;;21.10;99.90;;;;;;5015558;28;20453;-42
2021/08/18 09:10:38;;;;;;;0.90;0.70;;;20.70;99.90;;;;;;5015781;28;20452;-44
2021/08/18 09:13:15;;;;;;;0.90;0.70;;;20.50;99.90;;;;;;5015620;28;20526;-42
2021/08/18 09:15:42;;;;;;;0.90;0.70;;;20.20;99.90;;;;;;5015824;28;20771;-48
2021/08/18 09:18:10;;;;;;;0.90;0.60;;;20.10;99.90;;;;;;5015647;28;20503;-45
2021/08/18 09:20:42;;;;;;;1.10;0.73;;;20.00;99.90;;;;;;5015472;28;20460;-45
2021/08/18 09:23:12;;;;;;;1.00;0.77;;;19.90;99.90;;;;;;5016022;28;20488;-47
2021/08/18 09:25:40;;;;;;;1.60;1.00;;;19.60;99.90;;;;;;5015828;28;20461;-46
2021/08/18 09:28:21;;;;;;;0.97;0.73;;;19.30;99.90;;;;;;5015631;28;20445;-47
2021/08/18 09:30:56;;;;;;;1.33;0.90;;;19.10;99.90;;;;;;5015193;28;20822;-43
2021/08/18 09:33:24;;;;;;;1.00;0.70;;;18.90;99.90;;;;;;5015677;28;20441;-47
2021/08/18 09:35:56;;;;;;;0.90;0.60;;;18.80;99.90;;;;;;5015810;28;20488;-47
2021/08/18 09:38:26;;;;;;;1.10;0.80;;;18.60;99.90;;;;;;5015981;28;20491;-47
2021/08/18 09:40:54;;;;;;;1.10;0.80;;;18.50;99.90;;;;;;5015511;28;20449;-46
2021/08/18 09:43:25;;;;;;;1.10;1.00;;;18.50;99.90;;;;;;5015993;28;20484;-46
2021/08/18 09:45:56;;;;;;;1.07;0.83;;;18.50;99.90;;;;;;5015923;28;20433;-47
2021/08/18 09:48:25;;;;;;;0.90;0.70;;;18.50;99.90;;;;;;5015753;28;20937;-48
2021/08/18 09:50:53;;;;;;;0.90;0.50;;;18.50;99.90;;;;;;5015558;28;20453;-45
2021/08/18 09:53:23;;;;;;;1.00;0.80;;;18.40;99.90;;;;;;5015498;28;20459;-48
2021/08/18 09:55:53;;;;;;;1.50;1.10;;;18.40;99.90;;;;;;5015807;28;20767;-43
2021/08/18 09:58:23;;;;;;;0.90;0.70;;;18.50;99.90;;;;;;5015599;28;20834;-44
2021/08/18 10:00:50;;;;;;;0.90;0.60;;;18.70;99.90;;;;;;5015917;28;20882;-50
2021/08/18 10:03:17;;;;;;;0.90;0.60;;;19.00;99.90;;;;;;5015123;28;20484;-43
2021/08/18 10:05:44;;;;;;;0.90;0.60;;;20.30;99.90;;;;;;5014820;28;20445;-44
2021/08/18 10:08:11;;;;;;;0.90;0.70;;;21.80;99.90;;;;;;5014728;28;20825;-46
2021/08/18 10:10:40;;;;;;;0.90;0.70;;;23.00;99.90;;;;;;5014547;28;20441;-48
2021/08/18 10:13:08;;;;;;;0.90;0.77;;;23.60;99.90;;;;;;5013980;28;20480;-42
2021/08/18 10:15:37;;;;;;;0.90;0.73;;;23.60;99.90;;;;;;5014531;28;20528;-45
2021/08/18 10:18:04;;;;;;;1.00;0.70;;;24.10;99.90;;;;;;5014421;28;20473;-45
2021/08/18 10:20:31;;;;;;;1.40;0.90;;;24.60;99.90;;;;;;5014016;28;20499;-44
2021/08/18 10:23:03;;;;;;;1.20;1.07;;;24.40;99.90;;;;;;5014285;28;20453;-47
2021/08/18 10:25:45;;;;;;;1.00;0.73;;;24.00;99.90;;;;;;5014435;28;20468;-45
2021/08/18 10:28:13;;;;;;;0.90;0.70;;;23.50;99.90;;;;;;5014178;28;20442;-44
2021/08/18 10:30:53;;;;;;;1.20;0.90;;;23.60;99.90;;;;;;5014167;28;20461;-44
2021/08/18 10:33:56;;;;;;;1.07;0.80;;;24.20;99.90;;;;;;5014094;28;20529;-47
2021/08/18 10:37:02;;;;;;;1.10;0.90;;;25.00;99.90;;;;;;5003958;28;20469;-45
2021/08/18 10:39:37;;;;;;;1.00;0.83;;;25.30;97.50;;;;;;5013920;28;20448;-45
2021/08/18 10:42:07;;;;;;;1.20;1.00;;;25.60;95.30;;;;;;5013964;28;20514;-43
2021/08/18 10:44:46;;;;;;;0.90;0.70;;;25.80;93.80;;;;;;5015458;28;20826;-45
2021/08/18 10:47:20;;;;;;;1.10;0.80;;;25.70;92.60;;;;;;5017492;28;20514;-49
2021/08/18 10:49:49;;;;;;;1.00;0.90;;;25.40;92.40;;;;;;5017728;28;20436;-48
2021/08/18 10:52:51;;;;;;;1.00;0.80;;;25.20;92.50;;;;;;5017664;28;20503;-45
2021/08/18 10:55:28;;;;;;;0.90;0.70;;;24.90;91.80;;;;;;5017449;28;20518;-48
2021/08/18 10:57:57;;;;;;;0.90;0.70;;;24.50;91.80;;;;;;5017466;28;20461;-49
2021/08/18 11:00:25;;;;;;;2.50;1.13;;;24.20;92.30;;;;;;5017280;28;20452;-46
2021/08/18 11:03:04;;;;;;;1.83;0.80;;;24.40;92.40;;;;;;5017455;28;20456;-48
2021/08/18 11:05:44;;;;;;;0.97;0.70;;;24.60;91.20;;;;;;5017489;28;20429;-46
2021/08/18 11:08:13;;;;;;;1.97;1.23;;;24.30;90.50;;;;;;5017044;28;20448;-43
2021/08/18 11:10:59;;;;;;;1.10;0.90;;;24.10;91.10;;;;;;5017471;28;20555;-46
2021/08/18 11:13:37;;;;;;;2.07;1.30;;;23.80;90.70;;;;;;5017084;28;20484;-48
2021/08/18 11:16:08;;;;;;;1.10;0.90;;;23.50;91.40;;;;;;5017186;28;20467;-49
2021/08/18 11:18:38;;;;;;;1.00;0.70;;;23.20;91.80;;;;;;5017198;28;20551;-48
2021/08/18 11:21:05;;;;;;;1.70;1.03;;;22.90;92.50;;;;;;5016869;28;20460;-45
2021/08/18 11:23:35;;;;;;;0.90;0.60;;;22.60;92.80;;;;;;5017905;28;20449;-45
2021/08/18 11:26:06;;;;;;;0.90;0.60;;;22.30;93.60;;;;;;5017130;28;20790;-42
2021/08/18 11:28:36;;;;;;;0.90;0.70;;;22.30;93.80;;;;;;5016795;28;20926;-45
2021/08/18 11:31:09;;;;;;;1.80;1.13;;;22.20;94.00;;;;;;5017097;28;20445;-46
2021/08/18 11:33:37;;;;;;;1.00;0.80;;;22.00;94.20;;;;;;5016631;28;20460;-43
2021/08/18 11:36:14;;;;;;;1.03;0.80;;;21.80;95.10;;;;;;5016869;28;20457;-42
2021/08/18 11:38:40;;;;;;;1.00;0.70;;;21.50;95.70;;;;;;5016705;28;20984;-45
2021/08/18 11:41:07;;;;;;;1.10;0.70;;;21.30;96.50;;;;;;5016837;28;20455;-49
2021/08/18 11:43:43;;;;;;;1.00;0.83;;;21.30;96.90;;;;;;5017127;28;20461;-46
2021/08/18 11:46:11;;;;;;;1.10;0.80;;;21.30;96.90;;;;;;5016931;28;20467;-48
2021/08/18 11:48:39;;;;;;;0.90;0.70;;;21.30;97.00;;;;;;5016802;28;20445;-47
2021/08/18 11:51:16;;;;;;;1.37;0.80;;;21.20;97.30;;;;;;5017008;28;20507;-49
2021/08/18 11:53:52;;;;;;;0.90;0.60;;;21.10;97.40;;;;;;5016907;28;20472;-45
2021/08/18 11:56:25;;;;;;;1.00;0.77;;;21.00;98.10;;;;;;5016977;28;20449;-50
2021/08/18 11:58:57;;;;;;;1.20;0.80;;;20.90;98.50;;;;;;5016689;28;20504;-46
2021/08/18 12:01:24;;;;;;;1.73;1.03;;;20.90;98.60;;;;;;5016383;28;21226;-42
2021/08/18 12:03:53;;;;;;;0.90;0.70;;;20.90;99.00;;;;;;5016366;28;20476;-50
2021/08/18 12:06:31;;;;;;;1.30;1.20;;;20.80;99.10;;;;;;5016965;28;20464;-45
2021/08/18 12:08:58;;;;;;;1.30;0.90;;;20.70;99.70;;;;;;5016551;28;20519;-47
2021/08/18 12:11:35;;;;;;;1.00;0.90;;;20.60;99.90;;;;;;5016824;28;20503;-49
2021/08/18 12:14:11;;;;;;;1.00;0.70;;;20.40;99.90;;;;;;5016758;28;20856;-47
2021/08/18 12:16:38;;;;;;;0.90;0.70;;;20.30;99.90;;;;;;5016345;28;20445;-48
2021/08/18 12:19:23;;;;;;;0.90;0.70;;;20.30;99.90;;;;;;5016586;28;20480;-47
2021/08/18 12:22:15;;;;;;;1.00;0.77;;;20.10;99.90;;;;;;5016740;28;20535;-43
2021/08/18 12:24:44;;;;;;;1.00;0.70;;;20.10;99.90;;;;;;5017027;28;20483;-44
2021/08/18 12:27:14;;;;;;;0.90;0.60;;;20.00;99.90;;;;;;5016816;28;20445;-42
2021/08/18 12:29:44;;;;;;;1.00;0.80;;;20.00;99.90;;;;;;5016975;28;20456;-48
2021/08/18 12:32:12;;;;;;;0.90;0.60;;;20.00;99.90;;;;;;5016497;28;20451;-47
2021/08/18 12:34:43;;;;;;;0.90;0.60;;;20.20;99.90;;;;;;5016255;28;20507;-48
2021/08/18 12:37:12;;;;;;;0.90;0.60;;;20.30;99.90;;;;;;5016943;28;20859;-49
2021/08/18 12:39:44;;;;;;;0.90;0.70;;;20.60;99.90;;;;;;5015986;28;21159;-48
2021/08/18 12:42:22;;;;;;;0.90;0.70;;;20.80;99.90;;;;;;5015913;28;20886;-47
2021/08/18 12:45:00;;;;;;;0.90;0.67;;;20.90;99.90;;;;;;5015931;28;20885;-45
2021/08/18 12:47:31;;;;;;;1.30;0.70;;;20.90;99.90;;;;;;5015877;28;20537;-46
2021/08/18 12:50:00;;;;;;;0.90;0.70;;;20.90;99.90;;;;;;5016017;28;20872;-45
2021/08/18 12:52:27;;;;;;;1.10;0.70;;;20.70;99.90;;;;;;5015742;28;20445;-50